sensor_id;sensor_type;location;lat;lon;timestamp;P1;durP1;ratioP1;P2;durP2;ratioP2
7432;SDS011;32233;49.500;7.764;2023-06-01T00:01:28;2.40;;;1.80;;
7432;SDS011;32233;49.500;7.764;2023-06-01T00:03:59;1.83;;;1.60;;
7432;SDS011;32233;49.500;7.764;2023-06-01T00:06:26;3.20;;;1.60;;
7432;SDS011;32233;49.500;7.764;2023-06-01T00:08:56;2.13;;;1.93;;
7432;SDS011;32233;49.500;7.764;2023-06-01T00:11:23;3.87;;;2.10;;
7432;SDS011;32233;49.500;7.764;2023-06-01T00:13:52;5.50;;;2.00;;
7432;SDS011;32233;49.500;7.764;2023-06-01T00:16:19;3.20;;;1.80;;
7432;SDS011;32233;49.500;7.764;2023-06-01T00:18:45;4.33;;;2.00;;
7432;SDS011;32233;49.500;7.764;2023-06-01T00:21:12;3.80;;;1.90;;
7432;SDS011;32233;49.500;7.764;2023-06-01T00:23:38;2.97;;;2.00;;
7432;SDS011;32233;49.500;7.764;2023-06-01T00:26:07;4.17;;;1.70;;
7432;SDS011;32233;49.500;7.764;2023-06-01T00:28:35;4.57;;;2.03;;
7432;SDS011;32233;49.500;7.764;2023-06-01T00:31:01;2.47;;;2.27;;
7432;SDS011;32233;49.500;7.764;2023-06-01T00:33:28;3.47;;;2.00;;
7432;SDS011;32233;49.500;7.764;2023-06-01T00:35:56;3.20;;;2.10;;
7432;SDS011;32233;49.500;7.764;2023-06-01T00:38:23;4.27;;;2.47;;
7432;SDS011;32233;49.500;7.764;2023-06-01T00:40:49;4.63;;;2.17;;
7432;SDS011;32233;49.500;7.764;2023-06-01T00:43:17;4.07;;;2.37;;
7432;SDS011;32233;49.500;7.764;2023-06-01T00:45:44;4.13;;;2.10;;
7432;SDS011;32233;49.500;7.764;2023-06-01T00:48:11;2.90;;;2.00;;
7432;SDS011;32233;49.500;7.764;2023-06-01T00:50:40;3.60;;;2.27;;
7432;SDS011;32233;49.500;7.764;2023-06-01T00:53:10;2.93;;;2.60;;
7432;SDS011;32233;49.500;7.764;2023-06-01T00:55:42;5.40;;;2.33;;
7432;SDS011;32233;49.500;7.764;2023-06-01T00:58:10;3.77;;;2.30;;
7432;SDS011;32233;49.500;7.764;2023-06-01T01:00:38;5.30;;;2.23;;
7432;SDS011;32233;49.500;7.764;2023-06-01T01:03:06;3.63;;;2.67;;
7432;SDS011;32233;49.500;7.764;2023-06-01T01:05:36;5.07;;;2.23;;
7432;SDS011;32233;49.500;7.764;2023-06-01T01:08:11;4.33;;;2.30;;
7432;SDS011;32233;49.500;7.764;2023-06-01T01:13:41;2.83;;;2.23;;
7432;SDS011;32233;49.500;7.764;2023-06-01T01:16:18;4.47;;;3.03;;
7432;SDS011;32233;49.500;7.764;2023-06-01T01:27:38;6.60;;;2.53;;
7432;SDS011;32233;49.500;7.764;2023-06-01T01:30:11;3.23;;;2.83;;
7432;SDS011;32233;49.500;7.764;2023-06-01T01:32:39;2.50;;;2.30;;
7432;SDS011;32233;49.500;7.764;2023-06-01T01:35:08;2.50;;;2.30;;
7432;SDS011;32233;49.500;7.764;2023-06-01T01:37:35;2.70;;;2.30;;
7432;SDS011;32233;49.500;7.764;2023-06-01T01:40:02;3.40;;;2.07;;
7432;SDS011;32233;49.500;7.764;2023-06-01T01:42:29;5.27;;;2.67;;
7432;SDS011;32233;49.500;7.764;2023-06-01T01:44:56;5.53;;;3.13;;
7432;SDS011;32233;49.500;7.764;2023-06-01T01:47:34;4.10;;;2.53;;
7432;SDS011;32233;49.500;7.764;2023-06-01T01:50:09;3.87;;;2.00;;
7432;SDS011;32233;49.500;7.764;2023-06-01T01:52:39;5.57;;;3.10;;
7432;SDS011;32233;49.500;7.764;2023-06-01T01:55:08;5.03;;;2.70;;
7432;SDS011;32233;49.500;7.764;2023-06-01T01:57:35;4.80;;;2.93;;
7432;SDS011;32233;49.500;7.764;2023-06-01T02:00:03;5.00;;;2.67;;
7432;SDS011;32233;49.500;7.764;2023-06-01T02:02:38;2.87;;;2.60;;
7432;SDS011;32233;49.500;7.764;2023-06-01T02:05:05;6.00;;;2.83;;
7432;SDS011;32233;49.500;7.764;2023-06-01T02:07:32;3.27;;;2.90;;
7432;SDS011;32233;49.500;7.764;2023-06-01T02:10:02;4.03;;;2.43;;
7432;SDS011;32233;49.500;7.764;2023-06-01T02:12:31;3.77;;;2.67;;
7432;SDS011;32233;49.500;7.764;2023-06-01T02:14:57;3.70;;;2.30;;
7432;SDS011;32233;49.500;7.764;2023-06-01T02:17:24;2.93;;;2.57;;
7432;SDS011;32233;49.500;7.764;2023-06-01T02:19:53;3.00;;;2.80;;
7432;SDS011;32233;49.500;7.764;2023-06-01T02:22:19;4.90;;;2.87;;
7432;SDS011;32233;49.500;7.764;2023-06-01T02:24:46;5.60;;;2.83;;
7432;SDS011;32233;49.500;7.764;2023-06-01T02:27:13;4.37;;;2.70;;
7432;SDS011;32233;49.500;7.764;2023-06-01T02:29:40;4.13;;;2.60;;
7432;SDS011;32233;49.500;7.764;2023-06-01T02:32:06;2.60;;;2.40;;
7432;SDS011;32233;49.500;7.764;2023-06-01T02:34:34;4.43;;;2.77;;
7432;SDS011;32233;49.500;7.764;2023-06-01T02:37:02;3.90;;;3.07;;
7432;SDS011;32233;49.500;7.764;2023-06-01T02:39:31;2.83;;;2.63;;
7432;SDS011;32233;49.500;7.764;2023-06-01T02:41:57;3.17;;;2.87;;
7432;SDS011;32233;49.500;7.764;2023-06-01T02:44:24;4.47;;;2.30;;
7432;SDS011;32233;49.500;7.764;2023-06-01T02:46:50;3.37;;;2.60;;
7432;SDS011;32233;49.500;7.764;2023-06-01T02:49:17;2.70;;;2.47;;
7432;SDS011;32233;49.500;7.764;2023-06-01T02:51:44;3.10;;;2.63;;
7432;SDS011;32233;49.500;7.764;2023-06-01T02:54:17;4.07;;;2.47;;
7432;SDS011;32233;49.500;7.764;2023-06-01T02:56:44;4.10;;;2.63;;
7432;SDS011;32233;49.500;7.764;2023-06-01T02:59:21;3.90;;;2.97;;
7432;SDS011;32233;49.500;7.764;2023-06-01T03:01:54;3.53;;;2.70;;
7432;SDS011;32233;49.500;7.764;2023-06-01T03:04:21;4.43;;;2.23;;
7432;SDS011;32233;49.500;7.764;2023-06-01T03:06:49;3.10;;;2.80;;
7432;SDS011;32233;49.500;7.764;2023-06-01T03:09:34;3.20;;;2.90;;
7432;SDS011;32233;49.500;7.764;2023-06-01T03:12:33;5.90;;;2.80;;
7432;SDS011;32233;49.500;7.764;2023-06-01T03:15:00;3.93;;;2.70;;
7432;SDS011;32233;49.500;7.764;2023-06-01T03:17:27;3.27;;;3.00;;
7432;SDS011;32233;49.500;7.764;2023-06-01T03:19:53;2.90;;;2.60;;
7432;SDS011;32233;49.500;7.764;2023-06-01T03:22:22;6.10;;;2.73;;
7432;SDS011;32233;49.500;7.764;2023-06-01T03:24:48;4.10;;;2.80;;
7432;SDS011;32233;49.500;7.764;2023-06-01T03:27:19;3.77;;;2.90;;
7432;SDS011;32233;49.500;7.764;2023-06-01T03:29:45;4.97;;;2.83;;
7432;SDS011;32233;49.500;7.764;2023-06-01T03:32:13;4.37;;;2.90;;
7432;SDS011;32233;49.500;7.764;2023-06-01T03:34:41;3.90;;;3.30;;
7432;SDS011;32233;49.500;7.764;2023-06-01T03:37:08;4.17;;;2.90;;
7432;SDS011;32233;49.500;7.764;2023-06-01T03:39:34;5.30;;;3.57;;
7432;SDS011;32233;49.500;7.764;2023-06-01T03:42:04;3.40;;;2.70;;
7432;SDS011;32233;49.500;7.764;2023-06-01T03:44:31;5.60;;;3.10;;
7432;SDS011;32233;49.500;7.764;2023-06-01T03:46:58;3.67;;;2.87;;
7432;SDS011;32233;49.500;7.764;2023-06-01T03:49:25;7.27;;;3.07;;
7432;SDS011;32233;49.500;7.764;2023-06-01T03:51:51;4.30;;;2.70;;
7432;SDS011;32233;49.500;7.764;2023-06-01T03:54:19;5.67;;;3.33;;
7432;SDS011;32233;49.500;7.764;2023-06-01T03:56:47;3.73;;;2.97;;
7432;SDS011;32233;49.500;7.764;2023-06-01T03:59:14;4.90;;;3.00;;
7432;SDS011;32233;49.500;7.764;2023-06-01T04:01:41;4.90;;;3.03;;
7432;SDS011;32233;49.500;7.764;2023-06-01T04:04:10;5.00;;;2.67;;
7432;SDS011;32233;49.500;7.764;2023-06-01T04:06:39;7.63;;;3.50;;
7432;SDS011;32233;49.500;7.764;2023-06-01T04:09:07;4.03;;;2.63;;
7432;SDS011;32233;49.500;7.764;2023-06-01T04:11:35;4.83;;;2.90;;
7432;SDS011;32233;49.500;7.764;2023-06-01T04:14:02;4.53;;;2.83;;
7432;SDS011;32233;49.500;7.764;2023-06-01T04:16:28;3.93;;;2.70;;
7432;SDS011;32233;49.500;7.764;2023-06-01T04:18:55;4.57;;;3.13;;
7432;SDS011;32233;49.500;7.764;2023-06-01T04:21:25;3.13;;;2.60;;
7432;SDS011;32233;49.500;7.764;2023-06-01T04:23:52;3.63;;;3.00;;
7432;SDS011;32233;49.500;7.764;2023-06-01T04:26:20;5.17;;;3.10;;
7432;SDS011;32233;49.500;7.764;2023-06-01T04:28:47;3.50;;;2.80;;
7432;SDS011;32233;49.500;7.764;2023-06-01T04:31:16;5.33;;;2.90;;
7432;SDS011;32233;49.500;7.764;2023-06-01T04:33:46;3.07;;;2.60;;
7432;SDS011;32233;49.500;7.764;2023-06-01T04:36:22;2.93;;;2.60;;
7432;SDS011;32233;49.500;7.764;2023-06-01T04:38:52;4.17;;;3.00;;
7432;SDS011;32233;49.500;7.764;2023-06-01T04:41:21;6.97;;;3.10;;
7432;SDS011;32233;49.500;7.764;2023-06-01T04:43:49;4.33;;;3.03;;
7432;SDS011;32233;49.500;7.764;2023-06-01T04:46:21;4.17;;;3.10;;
7432;SDS011;32233;49.500;7.764;2023-06-01T04:48:53;4.40;;;3.10;;
7432;SDS011;32233;49.500;7.764;2023-06-01T04:51:21;4.90;;;3.00;;
7432;SDS011;32233;49.500;7.764;2023-06-01T04:53:50;3.77;;;3.07;;
7432;SDS011;32233;49.500;7.764;2023-06-01T04:58:58;3.20;;;2.90;;
7432;SDS011;32233;49.500;7.764;2023-06-01T05:01:27;4.83;;;2.97;;
7432;SDS011;32233;49.500;7.764;2023-06-01T05:03:56;3.40;;;2.80;;
7432;SDS011;32233;49.500;7.764;2023-06-01T05:06:24;3.57;;;3.20;;
7432;SDS011;32233;49.500;7.764;2023-06-01T05:08:51;4.67;;;3.10;;
7432;SDS011;32233;49.500;7.764;2023-06-01T05:11:18;3.67;;;3.33;;
7432;SDS011;32233;49.500;7.764;2023-06-01T05:13:45;3.87;;;2.90;;
7432;SDS011;32233;49.500;7.764;2023-06-01T05:16:11;3.63;;;3.00;;
7432;SDS011;32233;49.500;7.764;2023-06-01T05:18:39;5.23;;;3.03;;
7432;SDS011;32233;49.500;7.764;2023-06-01T05:21:07;6.37;;;3.13;;
7432;SDS011;32233;49.500;7.764;2023-06-01T05:23:34;4.00;;;3.40;;
7432;SDS011;32233;49.500;7.764;2023-06-01T05:26:01;3.47;;;3.17;;
7432;SDS011;32233;49.500;7.764;2023-06-01T05:28:33;5.77;;;2.70;;
7432;SDS011;32233;49.500;7.764;2023-06-01T05:31:03;4.57;;;2.70;;
7432;SDS011;32233;49.500;7.764;2023-06-01T05:33:35;4.13;;;2.97;;
7432;SDS011;32233;49.500;7.764;2023-06-01T05:36:03;5.47;;;3.00;;
7432;SDS011;32233;49.500;7.764;2023-06-01T05:38:30;3.47;;;2.50;;
7432;SDS011;32233;49.500;7.764;2023-06-01T05:40:56;3.73;;;2.30;;
7432;SDS011;32233;49.500;7.764;2023-06-01T05:43:23;3.97;;;3.00;;
7432;SDS011;32233;49.500;7.764;2023-06-01T05:45:50;4.43;;;2.80;;
7432;SDS011;32233;49.500;7.764;2023-06-01T05:48:17;4.57;;;3.10;;
7432;SDS011;32233;49.500;7.764;2023-06-01T05:50:48;4.37;;;3.10;;
7432;SDS011;32233;49.500;7.764;2023-06-01T05:53:16;4.17;;;2.40;;
7432;SDS011;32233;49.500;7.764;2023-06-01T05:55:42;4.47;;;2.93;;
7432;SDS011;32233;49.500;7.764;2023-06-01T05:58:09;4.00;;;2.80;;
7432;SDS011;32233;49.500;7.764;2023-06-01T06:00:36;3.87;;;2.50;;
7432;SDS011;32233;49.500;7.764;2023-06-01T06:03:03;3.27;;;2.80;;
7432;SDS011;32233;49.500;7.764;2023-06-01T06:05:30;2.57;;;2.37;;
7432;SDS011;32233;49.500;7.764;2023-06-01T06:07:57;3.90;;;2.97;;
7432;SDS011;32233;49.500;7.764;2023-06-01T06:10:23;3.47;;;2.53;;
7432;SDS011;32233;49.500;7.764;2023-06-01T06:12:50;4.17;;;2.90;;
7432;SDS011;32233;49.500;7.764;2023-06-01T06:15:17;4.67;;;3.00;;
7432;SDS011;32233;49.500;7.764;2023-06-01T06:17:44;3.17;;;2.57;;
7432;SDS011;32233;49.500;7.764;2023-06-01T06:20:11;4.33;;;2.73;;
7432;SDS011;32233;49.500;7.764;2023-06-01T06:22:41;3.50;;;2.87;;
7432;SDS011;32233;49.500;7.764;2023-06-01T06:25:11;4.27;;;2.50;;
7432;SDS011;32233;49.500;7.764;2023-06-01T06:27:38;3.13;;;2.60;;
7432;SDS011;32233;49.500;7.764;2023-06-01T06:30:04;3.27;;;2.40;;
7432;SDS011;32233;49.500;7.764;2023-06-01T06:32:33;3.13;;;2.30;;
7432;SDS011;32233;49.500;7.764;2023-06-01T06:35:01;2.40;;;1.90;;
7432;SDS011;32233;49.500;7.764;2023-06-01T06:37:28;3.43;;;1.93;;
7432;SDS011;32233;49.500;7.764;2023-06-01T06:39:56;2.90;;;2.30;;
7432;SDS011;32233;49.500;7.764;2023-06-01T06:42:23;3.63;;;2.20;;
7432;SDS011;32233;49.500;7.764;2023-06-01T06:44:49;3.90;;;2.03;;
7432;SDS011;32233;49.500;7.764;2023-06-01T06:47:16;2.07;;;1.50;;
7432;SDS011;32233;49.500;7.764;2023-06-01T06:49:46;4.67;;;1.80;;
7432;SDS011;32233;49.500;7.764;2023-06-01T06:52:12;2.47;;;1.70;;
7432;SDS011;32233;49.500;7.764;2023-06-01T06:54:39;6.20;;;1.80;;
7432;SDS011;32233;49.500;7.764;2023-06-01T06:57:07;4.23;;;1.83;;
7432;SDS011;32233;49.500;7.764;2023-06-01T06:59:34;4.37;;;1.80;;
7432;SDS011;32233;49.500;7.764;2023-06-01T07:02:01;2.57;;;1.67;;
7432;SDS011;32233;49.500;7.764;2023-06-01T07:04:28;3.63;;;1.93;;
7432;SDS011;32233;49.500;7.764;2023-06-01T07:06:55;3.43;;;1.77;;
7432;SDS011;32233;49.500;7.764;2023-06-01T07:09:22;2.40;;;1.60;;
7432;SDS011;32233;49.500;7.764;2023-06-01T07:11:54;4.90;;;1.37;;
7432;SDS011;32233;49.500;7.764;2023-06-01T07:14:24;2.23;;;1.90;;
7432;SDS011;32233;49.500;7.764;2023-06-01T07:16:51;2.33;;;1.67;;
7432;SDS011;32233;49.500;7.764;2023-06-01T07:19:18;3.43;;;1.90;;
7432;SDS011;32233;49.500;7.764;2023-06-01T07:21:44;2.30;;;1.80;;
7432;SDS011;32233;49.500;7.764;2023-06-01T07:24:11;1.67;;;1.58;;
7432;SDS011;32233;49.500;7.764;2023-06-01T07:26:38;3.53;;;1.70;;
7432;SDS011;32233;49.500;7.764;2023-06-01T07:29:04;2.65;;;2.13;;
7432;SDS011;32233;49.500;7.764;2023-06-01T07:31:32;2.53;;;1.90;;
7432;SDS011;32233;49.500;7.764;2023-06-01T07:33:59;1.90;;;1.67;;
7432;SDS011;32233;49.500;7.764;2023-06-01T07:36:26;2.42;;;1.98;;
7432;SDS011;32233;49.500;7.764;2023-06-01T07:38:53;2.95;;;1.90;;
7432;SDS011;32233;49.500;7.764;2023-06-01T07:41:20;1.58;;;1.48;;
7432;SDS011;32233;49.500;7.764;2023-06-01T07:43:47;2.72;;;1.50;;
7432;SDS011;32233;49.500;7.764;2023-06-01T07:46:14;2.05;;;1.63;;
7432;SDS011;32233;49.500;7.764;2023-06-01T07:48:40;2.97;;;1.90;;
7432;SDS011;32233;49.500;7.764;2023-06-01T07:51:07;5.80;;;2.30;;
7432;SDS011;32233;49.500;7.764;2023-06-01T07:53:34;2.72;;;1.90;;
7432;SDS011;32233;49.500;7.764;2023-06-01T07:56:01;3.58;;;2.03;;
7432;SDS011;32233;49.500;7.764;2023-06-01T07:58:30;2.58;;;1.80;;
7432;SDS011;32233;49.500;7.764;2023-06-01T08:00:57;1.83;;;1.70;;
7432;SDS011;32233;49.500;7.764;2023-06-01T08:03:23;2.10;;;1.90;;
7432;SDS011;32233;49.500;7.764;2023-06-01T08:05:52;2.67;;;1.80;;
7432;SDS011;32233;49.500;7.764;2023-06-01T08:08:25;3.05;;;1.70;;
7432;SDS011;32233;49.500;7.764;2023-06-01T08:10:52;3.63;;;1.60;;
7432;SDS011;32233;49.500;7.764;2023-06-01T08:13:19;3.50;;;1.70;;
7432;SDS011;32233;49.500;7.764;2023-06-01T08:15:46;2.67;;;1.83;;
7432;SDS011;32233;49.500;7.764;2023-06-01T08:18:15;3.35;;;1.92;;
7432;SDS011;32233;49.500;7.764;2023-06-01T08:20:41;3.78;;;1.77;;
7432;SDS011;32233;49.500;7.764;2023-06-01T08:23:09;2.75;;;1.63;;
7432;SDS011;32233;49.500;7.764;2023-06-01T08:25:36;1.98;;;1.60;;
7432;SDS011;32233;49.500;7.764;2023-06-01T08:28:03;2.42;;;1.65;;
7432;SDS011;32233;49.500;7.764;2023-06-01T08:30:30;1.98;;;1.63;;
7432;SDS011;32233;49.500;7.764;2023-06-01T08:32:57;5.53;;;2.00;;
7432;SDS011;32233;49.500;7.764;2023-06-01T08:35:24;2.70;;;1.67;;
7432;SDS011;32233;49.500;7.764;2023-06-01T08:37:51;3.90;;;2.07;;
7432;SDS011;32233;49.500;7.764;2023-06-01T08:40:18;2.47;;;2.10;;
7432;SDS011;32233;49.500;7.764;2023-06-01T08:42:57;3.20;;;1.70;;
7432;SDS011;32233;49.500;7.764;2023-06-01T08:45:25;3.70;;;1.70;;
7432;SDS011;32233;49.500;7.764;2023-06-01T08:47:53;2.23;;;1.80;;
7432;SDS011;32233;49.500;7.764;2023-06-01T08:50:21;2.17;;;1.73;;
7432;SDS011;32233;49.500;7.764;2023-06-01T08:52:49;3.03;;;1.80;;
7432;SDS011;32233;49.500;7.764;2023-06-01T08:55:23;3.23;;;1.70;;
7432;SDS011;32233;49.500;7.764;2023-06-01T08:57:50;2.37;;;1.73;;
7432;SDS011;32233;49.500;7.764;2023-06-01T09:00:17;3.53;;;1.60;;
7432;SDS011;32233;49.500;7.764;2023-06-01T09:02:44;2.43;;;1.67;;
7432;SDS011;32233;49.500;7.764;2023-06-01T09:05:11;6.00;;;2.27;;
7432;SDS011;32233;49.500;7.764;2023-06-01T09:07:39;3.27;;;1.77;;
7432;SDS011;32233;49.500;7.764;2023-06-01T09:10:06;2.00;;;1.70;;
7432;SDS011;32233;49.500;7.764;2023-06-01T09:12:33;4.33;;;1.93;;
7432;SDS011;32233;49.500;7.764;2023-06-01T09:17:30;3.23;;;1.73;;
7432;SDS011;32233;49.500;7.764;2023-06-01T09:19:56;2.90;;;1.80;;
7432;SDS011;32233;49.500;7.764;2023-06-01T09:22:23;1.50;;;1.40;;
7432;SDS011;32233;49.500;7.764;2023-06-01T09:24:56;4.77;;;1.77;;
7432;SDS011;32233;49.500;7.764;2023-06-01T09:27:24;3.73;;;1.50;;
7432;SDS011;32233;49.500;7.764;2023-06-01T09:29:52;2.80;;;1.47;;
7432;SDS011;32233;49.500;7.764;2023-06-01T09:32:20;2.13;;;1.60;;
7432;SDS011;32233;49.500;7.764;2023-06-01T09:34:50;3.00;;;1.50;;
7432;SDS011;32233;49.500;7.764;2023-06-01T09:37:17;2.80;;;1.63;;
7432;SDS011;32233;49.500;7.764;2023-06-01T09:39:43;1.73;;;1.40;;
7432;SDS011;32233;49.500;7.764;2023-06-01T09:42:10;1.83;;;1.40;;
7432;SDS011;32233;49.500;7.764;2023-06-01T09:44:40;2.07;;;1.80;;
7432;SDS011;32233;49.500;7.764;2023-06-01T09:47:08;2.77;;;1.60;;
7432;SDS011;32233;49.500;7.764;2023-06-01T09:49:39;2.80;;;1.37;;
7432;SDS011;32233;49.500;7.764;2023-06-01T09:54:40;3.23;;;1.93;;
7432;SDS011;32233;49.500;7.764;2023-06-01T09:57:09;2.57;;;1.70;;
7432;SDS011;32233;49.500;7.764;2023-06-01T09:59:39;2.37;;;1.30;;
7432;SDS011;32233;49.500;7.764;2023-06-01T10:02:14;4.10;;;1.90;;
7432;SDS011;32233;49.500;7.764;2023-06-01T10:04:47;4.47;;;1.77;;
7432;SDS011;32233;49.500;7.764;2023-06-01T10:07:16;5.17;;;1.70;;
7432;SDS011;32233;49.500;7.764;2023-06-01T10:09:45;3.73;;;1.40;;
7432;SDS011;32233;49.500;7.764;2023-06-01T10:12:17;2.97;;;1.80;;
7432;SDS011;32233;49.500;7.764;2023-06-01T10:14:43;3.43;;;1.87;;
7432;SDS011;32233;49.500;7.764;2023-06-01T10:17:10;2.93;;;1.70;;
7432;SDS011;32233;49.500;7.764;2023-06-01T10:19:38;5.50;;;1.60;;
7432;SDS011;32233;49.500;7.764;2023-06-01T10:22:05;3.33;;;1.60;;
7432;SDS011;32233;49.500;7.764;2023-06-01T10:24:33;1.80;;;1.63;;
7432;SDS011;32233;49.500;7.764;2023-06-01T10:31:07;3.63;;;1.60;;
7432;SDS011;32233;49.500;7.764;2023-06-01T10:37:15;3.70;;;1.80;;
7432;SDS011;32233;49.500;7.764;2023-06-01T10:42:47;2.90;;;1.63;;
7432;SDS011;32233;49.500;7.764;2023-06-01T10:45:37;3.83;;;1.90;;
7432;SDS011;32233;49.500;7.764;2023-06-01T10:48:50;4.07;;;1.90;;
7432;SDS011;32233;49.500;7.764;2023-06-01T10:51:27;4.10;;;2.40;;
7432;SDS011;32233;49.500;7.764;2023-06-01T10:54:23;4.47;;;1.90;;
7432;SDS011;32233;49.500;7.764;2023-06-01T11:03:02;4.70;;;2.15;;
7432;SDS011;32233;49.500;7.764;2023-06-01T11:05:33;2.30;;;1.85;;
7432;SDS011;32233;49.500;7.764;2023-06-01T11:13:20;5.93;;;2.10;;
7432;SDS011;32233;49.500;7.764;2023-06-01T11:21:14;1.60;;;1.48;;
7432;SDS011;32233;49.500;7.764;2023-06-01T11:23:46;1.70;;;1.60;;
7432;SDS011;32233;49.500;7.764;2023-06-01T11:26:16;2.13;;;1.80;;
7432;SDS011;32233;49.500;7.764;2023-06-01T11:28:45;3.73;;;1.83;;
7432;SDS011;32233;49.500;7.764;2023-06-01T11:31:13;2.83;;;1.80;;
7432;SDS011;32233;49.500;7.764;2023-06-01T11:34:02;3.50;;;1.47;;
7432;SDS011;32233;49.500;7.764;2023-06-01T11:36:44;4.20;;;1.83;;
7432;SDS011;32233;49.500;7.764;2023-06-01T11:41:51;6.85;;;2.22;;
7432;SDS011;32233;49.500;7.764;2023-06-01T11:44:19;3.10;;;1.67;;
7432;SDS011;32233;49.500;7.764;2023-06-01T11:46:52;3.42;;;1.98;;
7432;SDS011;32233;49.500;7.764;2023-06-01T11:49:20;1.70;;;1.60;;
7432;SDS011;32233;49.500;7.764;2023-06-01T11:51:46;3.53;;;1.60;;
7432;SDS011;32233;49.500;7.764;2023-06-01T11:54:13;2.22;;;1.67;;
7432;SDS011;32233;49.500;7.764;2023-06-01T11:56:40;2.40;;;1.63;;
7432;SDS011;32233;49.500;7.764;2023-06-01T11:59:07;4.03;;;1.95;;
7432;SDS011;32233;49.500;7.764;2023-06-01T12:01:45;2.63;;;2.40;;
7432;SDS011;32233;49.500;7.764;2023-06-01T12:04:13;4.28;;;1.95;;
7432;SDS011;32233;49.500;7.764;2023-06-01T12:06:41;2.35;;;1.90;;
7432;SDS011;32233;49.500;7.764;2023-06-01T12:09:07;2.85;;;1.98;;
7432;SDS011;32233;49.500;7.764;2023-06-01T12:11:35;4.43;;;1.80;;
7432;SDS011;32233;49.500;7.764;2023-06-01T12:14:03;3.08;;;1.90;;
7432;SDS011;32233;49.500;7.764;2023-06-01T12:16:51;3.03;;;1.75;;
7432;SDS011;32233;49.500;7.764;2023-06-01T12:19:19;3.30;;;1.73;;
7432;SDS011;32233;49.500;7.764;2023-06-01T12:21:50;4.28;;;1.70;;
7432;SDS011;32233;49.500;7.764;2023-06-01T12:24:30;3.20;;;1.83;;
7432;SDS011;32233;49.500;7.764;2023-06-01T12:27:01;3.97;;;2.60;;
7432;SDS011;32233;49.500;7.764;2023-06-01T12:29:39;5.78;;;1.90;;
7432;SDS011;32233;49.500;7.764;2023-06-01T12:32:10;5.53;;;1.98;;
7432;SDS011;32233;49.500;7.764;2023-06-01T12:34:39;3.42;;;1.67;;
7432;SDS011;32233;49.500;7.764;2023-06-01T12:37:16;2.58;;;1.70;;
7432;SDS011;32233;49.500;7.764;2023-06-01T12:39:53;4.00;;;1.75;;
7432;SDS011;32233;49.500;7.764;2023-06-01T12:42:38;3.33;;;1.73;;
7432;SDS011;32233;49.500;7.764;2023-06-01T12:45:06;3.20;;;1.70;;
7432;SDS011;32233;49.500;7.764;2023-06-01T12:47:37;1.80;;;1.70;;
7432;SDS011;32233;49.500;7.764;2023-06-01T12:50:09;2.90;;;1.77;;
7432;SDS011;32233;49.500;7.764;2023-06-01T12:52:38;1.75;;;1.50;;
7432;SDS011;32233;49.500;7.764;2023-06-01T12:55:05;3.08;;;1.80;;
7432;SDS011;32233;49.500;7.764;2023-06-01T12:57:34;2.53;;;1.60;;
7432;SDS011;32233;49.500;7.764;2023-06-01T13:00:02;2.00;;;1.80;;
7432;SDS011;32233;49.500;7.764;2023-06-01T13:02:31;1.60;;;1.50;;
7432;SDS011;32233;49.500;7.764;2023-06-01T13:04:59;3.53;;;2.60;;
7432;SDS011;32233;49.500;7.764;2023-06-01T13:07:25;3.35;;;2.15;;
7432;SDS011;32233;49.500;7.764;2023-06-01T13:09:52;4.00;;;1.83;;
7432;SDS011;32233;49.500;7.764;2023-06-01T13:12:19;3.37;;;2.27;;
7432;SDS011;32233;49.500;7.764;2023-06-01T13:14:46;2.87;;;1.70;;
7432;SDS011;32233;49.500;7.764;2023-06-01T13:17:12;3.27;;;1.73;;
7432;SDS011;32233;49.500;7.764;2023-06-01T13:19:39;3.10;;;1.80;;
7432;SDS011;32233;49.500;7.764;2023-06-01T13:22:09;3.07;;;1.50;;
7432;SDS011;32233;49.500;7.764;2023-06-01T13:24:36;3.13;;;1.70;;
7432;SDS011;32233;49.500;7.764;2023-06-01T13:27:06;4.07;;;1.77;;
7432;SDS011;32233;49.500;7.764;2023-06-01T13:29:33;4.77;;;1.70;;
7432;SDS011;32233;49.500;7.764;2023-06-01T13:32:00;2.40;;;1.67;;
7432;SDS011;32233;49.500;7.764;2023-06-01T13:34:27;2.80;;;1.40;;
7432;SDS011;32233;49.500;7.764;2023-06-01T13:36:54;2.77;;;1.60;;
7432;SDS011;32233;49.500;7.764;2023-06-01T13:39:22;4.33;;;2.20;;
7432;SDS011;32233;49.500;7.764;2023-06-01T13:41:49;2.07;;;1.47;;
7432;SDS011;32233;49.500;7.764;2023-06-01T13:44:15;2.90;;;1.73;;
7432;SDS011;32233;49.500;7.764;2023-06-01T13:46:44;2.03;;;1.40;;
7432;SDS011;32233;49.500;7.764;2023-06-01T13:49:10;2.10;;;1.77;;
7432;SDS011;32233;49.500;7.764;2023-06-01T13:51:37;2.27;;;1.33;;
7432;SDS011;32233;49.500;7.764;2023-06-01T13:54:06;4.00;;;1.77;;
7432;SDS011;32233;49.500;7.764;2023-06-01T13:56:32;3.73;;;1.40;;
7432;SDS011;32233;49.500;7.764;2023-06-01T13:58:59;3.03;;;1.30;;
7432;SDS011;32233;49.500;7.764;2023-06-01T14:01:26;2.60;;;1.23;;
7432;SDS011;32233;49.500;7.764;2023-06-01T14:03:53;3.67;;;1.70;;
7432;SDS011;32233;49.500;7.764;2023-06-01T14:06:20;3.70;;;1.53;;
7432;SDS011;32233;49.500;7.764;2023-06-01T14:08:47;2.50;;;1.23;;
7432;SDS011;32233;49.500;7.764;2023-06-01T14:11:15;1.17;;;1.07;;
7432;SDS011;32233;49.500;7.764;2023-06-01T14:13:41;2.40;;;1.10;;
7432;SDS011;32233;49.500;7.764;2023-06-01T14:16:08;1.63;;;1.27;;
7432;SDS011;32233;49.500;7.764;2023-06-01T14:18:35;2.27;;;1.53;;
7432;SDS011;32233;49.500;7.764;2023-06-01T14:21:01;2.50;;;1.20;;
7432;SDS011;32233;49.500;7.764;2023-06-01T14:23:28;2.33;;;1.63;;
7432;SDS011;32233;49.500;7.764;2023-06-01T14:25:55;2.43;;;1.20;;
7432;SDS011;32233;49.500;7.764;2023-06-01T14:28:36;3.13;;;1.30;;
7432;SDS011;32233;49.500;7.764;2023-06-01T14:31:03;2.73;;;1.40;;
7432;SDS011;32233;49.500;7.764;2023-06-01T14:33:31;2.90;;;1.50;;
7432;SDS011;32233;49.500;7.764;2023-06-01T14:35:58;1.63;;;1.30;;
7432;SDS011;32233;49.500;7.764;2023-06-01T14:38:24;3.23;;;1.30;;
7432;SDS011;32233;49.500;7.764;2023-06-01T14:40:51;3.67;;;1.43;;
7432;SDS011;32233;49.500;7.764;2023-06-01T14:43:18;2.27;;;1.10;;
7432;SDS011;32233;49.500;7.764;2023-06-01T14:45:44;3.47;;;1.30;;
7432;SDS011;32233;49.500;7.764;2023-06-01T14:48:11;3.00;;;1.33;;
7432;SDS011;32233;49.500;7.764;2023-06-01T14:50:38;1.60;;;1.30;;
7432;SDS011;32233;49.500;7.764;2023-06-01T14:53:04;3.20;;;1.50;;
7432;SDS011;32233;49.500;7.764;2023-06-01T14:55:32;1.93;;;1.57;;
7432;SDS011;32233;49.500;7.764;2023-06-01T14:57:59;3.40;;;1.40;;
7432;SDS011;32233;49.500;7.764;2023-06-01T15:00:26;2.60;;;1.70;;
7432;SDS011;32233;49.500;7.764;2023-06-01T15:03:07;4.40;;;1.47;;
7432;SDS011;32233;49.500;7.764;2023-06-01T15:05:39;2.37;;;1.43;;
7432;SDS011;32233;49.500;7.764;2023-06-01T15:08:20;3.13;;;1.30;;
7432;SDS011;32233;49.500;7.764;2023-06-01T15:10:47;4.03;;;1.50;;
7432;SDS011;32233;49.500;7.764;2023-06-01T15:13:14;1.60;;;1.50;;
7432;SDS011;32233;49.500;7.764;2023-06-01T15:15:49;2.97;;;1.40;;
7432;SDS011;32233;49.500;7.764;2023-06-01T15:18:34;2.67;;;1.77;;
7432;SDS011;32233;49.500;7.764;2023-06-01T15:21:03;2.77;;;1.43;;
7432;SDS011;32233;49.500;7.764;2023-06-01T15:23:37;3.33;;;1.40;;
7432;SDS011;32233;49.500;7.764;2023-06-01T15:26:11;1.93;;;1.60;;
7432;SDS011;32233;49.500;7.764;2023-06-01T15:28:49;2.17;;;1.57;;
7432;SDS011;32233;49.500;7.764;2023-06-01T15:31:15;1.50;;;1.40;;
7432;SDS011;32233;49.500;7.764;2023-06-01T15:33:43;2.57;;;1.60;;
7432;SDS011;32233;49.500;7.764;2023-06-01T15:36:17;3.83;;;1.80;;
7432;SDS011;32233;49.500;7.764;2023-06-01T15:38:54;4.30;;;1.90;;
7432;SDS011;32233;49.500;7.764;2023-06-01T15:41:21;2.80;;;1.77;;
7432;SDS011;32233;49.500;7.764;2023-06-01T15:43:47;1.90;;;1.80;;
7432;SDS011;32233;49.500;7.764;2023-06-01T15:46:14;2.23;;;1.70;;
7432;SDS011;32233;49.500;7.764;2023-06-01T15:48:42;3.47;;;1.80;;
7432;SDS011;32233;49.500;7.764;2023-06-01T15:51:09;2.33;;;2.10;;
7432;SDS011;32233;49.500;7.764;2023-06-01T15:53:36;2.40;;;1.70;;
7432;SDS011;32233;49.500;7.764;2023-06-01T15:58:51;3.13;;;2.00;;
7432;SDS011;32233;49.500;7.764;2023-06-01T16:01:18;3.40;;;2.00;;
7432;SDS011;32233;49.500;7.764;2023-06-01T16:03:48;2.73;;;2.17;;